Time;durP1;ratioP1;P1;durP2;ratioP2;P2;SDS_P1;SDS_P2;PMS_P1;PMS_P2;Temp;Humidity;BMP_temperature;BMP_pressure;BME280_temperature;BME280_humidity;BME280_pressure;Samples;Min_cycle;Max_cycle;Signal;HPM_P1;HPM_P2
2021/12/11 00:00:58;;;;;;;38.70;19.15;;;2.00;98.10;;;;;;4956988;29;20043;-77
2021/12/11 00:03:36;;;;;;;34.80;17.65;;;2.10;98.20;;;;;;4956645;29;20047;-77
2021/12/11 00:06:21;;;;;;;36.58;17.73;;;2.10;98.10;;;;;;4956668;29;20047;-77
2021/12/11 00:08:51;;;;;;;34.58;16.80;;;2.10;98.10;;;;;;4955999;29;20043;-77
2021/12/11 00:11:38;;;;;;;32.35;15.00;;;2.10;97.90;;;;;;4956608;29;20058;-77
2021/12/11 00:14:07;;;;;;;25.38;12.93;;;2.10;97.90;;;;;;4940557;29;20047;-77
2021/12/11 00:16:36;;;;;;;26.67;13.98;;;2.00;97.80;;;;;;4955809;29;20065;-77
2021/12/11 00:19:19;;;;;;;30.90;14.52;;;2.00;98.00;;;;;;4956665;29;20051;-77
2021/12/11 00:21:47;;;;;;;27.63;13.75;;;2.00;97.90;;;;;;4956133;29;20086;-77
2021/12/11 00:24:17;;;;;;;28.45;15.10;;;1.90;97.90;;;;;;4939738;29;20051;-77
2021/12/11 00:26:54;;;;;;;34.55;14.23;;;1.90;98.00;;;;;;4955915;29;20062;-77
2021/12/11 00:29:23;;;;;;;28.92;13.98;;;1.90;98.00;;;;;;4955168;28;20499;-77
2021/12/11 00:31:52;;;;;;;29.98;15.32;;;2.00;98.00;;;;;;4955979;29;20126;-77
2021/12/11 00:34:20;;;;;;;28.90;14.55;;;2.00;97.90;;;;;;4955932;29;20058;-77
2021/12/11 00:36:55;;;;;;;28.13;13.85;;;1.90;97.80;;;;;;4955625;29;20059;-77
2021/12/11 00:39:21;;;;;;;24.73;13.25;;;1.90;97.80;;;;;;4956573;28;20063;-77
2021/12/11 00:41:53;;;;;;;29.05;14.70;;;1.80;97.60;;;;;;4955504;29;20083;-78
2021/12/11 00:44:20;;;;;;;27.83;14.38;;;1.80;97.60;;;;;;4955716;29;20086;-77
2021/12/11 00:46:46;;;;;;;28.67;14.25;;;1.80;97.80;;;;;;4955948;29;20055;-77
2021/12/11 00:49:17;;;;;;;30.50;14.65;;;1.90;97.90;;;;;;4955845;29;20102;-77
2021/12/11 00:51:51;;;;;;;28.92;13.88;;;1.70;97.70;;;;;;4939636;29;20052;-77
2021/12/11 00:54:17;;;;;;;28.33;14.20;;;1.80;97.80;;;;;;4955398;29;20054;-77
2021/12/11 00:56:45;;;;;;;25.60;13.25;;;1.80;97.80;;;;;;4955114;29;20581;-77
2021/12/11 00:59:15;;;;;;;24.42;12.20;;;1.80;97.70;;;;;;4955584;29;20048;-77
2021/12/11 01:01:47;;;;;;;25.88;12.23;;;1.80;97.70;;;;;;4955637;29;20145;-77
2021/12/11 01:04:20;;;;;;;27.13;12.73;;;1.80;97.80;;;;;;4939034;29;20514;-77
2021/12/11 01:06:52;;;;;;;23.38;11.88;;;1.80;97.80;;;;;;4955440;29;20047;-77
2021/12/11 01:09:27;;;;;;;24.50;12.13;;;1.80;97.70;;;;;;4955176;29;20077;-77
2021/12/11 01:12:04;;;;;;;22.83;11.02;;;1.80;97.80;;;;;;4955335;29;20050;-77
2021/12/11 01:14:35;;;;;;;24.05;11.40;;;1.80;97.90;;;;;;4955098;29;20061;-77
2021/12/11 01:17:37;;;;;;;23.70;11.13;;;1.80;98.10;;;;;;4955323;29;20097;-77
2021/12/11 01:20:11;;;;;;;24.00;11.40;;;1.80;98.00;;;;;;4954583;29;20495;-77
2021/12/11 01:22:38;;;;;;;24.65;11.43;;;1.70;98.10;;;;;;4939072;29;20054;-77
2021/12/11 01:25:13;;;;;;;21.40;10.75;;;1.80;98.30;;;;;;4955238;29;20452;-77
2021/12/11 01:27:43;;;;;;;27.80;12.52;;;1.80;98.10;;;;;;4939166;29;20118;-77
2021/12/11 01:30:12;;;;;;;23.48;11.82;;;1.70;98.10;;;;;;4938943;29;20094;-77
2021/12/11 01:32:39;;;;;;;28.05;12.68;;;1.80;98.30;;;;;;4939277;29;20051;-77
2021/12/11 01:35:08;;;;;;;25.67;11.88;;;1.80;98.10;;;;;;4954701;29;20046;-77
2021/12/11 01:37:34;;;;;;;28.63;11.82;;;1.70;97.80;;;;;;4954669;29;20063;-77
2021/12/11 01:40:04;;;;;;;33.63;13.88;;;1.70;97.80;;;;;;4937963;29;20506;-78
2021/12/11 01:42:33;;;;;;;31.63;13.70;;;1.60;97.80;;;;;;4954679;29;20047;-77
2021/12/11 01:45:01;;;;;;;28.58;13.18;;;1.60;97.90;;;;;;4954736;29;20399;-77
2021/12/11 01:47:31;;;;;;;33.63;12.82;;;1.70;98.10;;;;;;4954671;29;20074;-77
2021/12/11 01:50:14;;;;;;;24.90;11.85;;;1.70;97.90;;;;;;4954811;29;20051;-77
2021/12/11 01:53:00;;;;;;;26.05;12.15;;;1.70;97.80;;;;;;4954313;29;20511;-77
2021/12/11 01:55:33;;;;;;;27.97;12.30;;;1.70;97.80;;;;;;4954877;29;20399;-77
2021/12/11 01:58:00;;;;;;;26.85;12.50;;;1.60;97.70;;;;;;4954796;29;20043;-77
2021/12/11 02:00:46;;;;;;;26.27;11.27;;;1.50;97.60;;;;;;4954635;29;20054;-77
2021/12/11 02:03:17;;;;;;;25.52;11.63;;;1.40;97.60;;;;;;4954199;29;20462;-77
2021/12/11 02:05:43;;;;;;;25.42;12.23;;;1.40;97.90;;;;;;4954520;29;20122;-77
2021/12/11 02:08:14;;;;;;;26.45;11.98;;;1.50;97.90;;;;;;4954067;29;20401;-77
2021/12/11 02:10:54;;;;;;;27.02;11.77;;;1.50;97.80;;;;;;4954416;29;20055;-77
2021/12/11 02:13:35;;;;;;;23.40;11.82;;;1.50;97.70;;;;;;4938740;29;20047;-77
2021/12/11 02:16:01;;;;;;;22.15;11.20;;;1.60;97.90;;;;;;4938162;29;20051;-77
2021/12/11 02:18:35;;;;;;;26.30;13.27;;;1.60;97.80;;;;;;4954423;29;20051;-78
2021/12/11 02:21:16;;;;;;;23.75;11.55;;;1.60;97.80;;;;;;4954733;29;20505;-77
2021/12/11 02:23:42;;;;;;;25.15;11.45;;;1.70;97.80;;;;;;4938300;29;20087;-77
2021/12/11 02:26:15;;;;;;;21.75;10.45;;;1.60;97.70;;;;;;4954102;29;20137;-77
2021/12/11 02:28:57;;;;;;;24.40;10.88;;;1.60;97.70;;;;;;4954319;29;20401;-77
2021/12/11 02:31:33;;;;;;;23.85;11.23;;;1.60;97.60;;;;;;4954688;29;20047;-77
2021/12/11 02:34:08;;;;;;;22.58;10.45;;;1.60;97.70;;;;;;4954085;29;20055;-77
2021/12/11 02:36:46;;;;;;;19.50;10.90;;;1.60;97.60;;;;;;4953856;29;20059;-77
2021/12/11 02:39:27;;;;;;;20.73;10.82;;;1.60;97.70;;;;;;4953974;29;20067;-77
2021/12/11 02:41:59;;;;;;;24.73;11.38;;;1.50;97.60;;;;;;4954321;29;20055;-77
2021/12/11 02:44:48;;;;;;;21.30;11.05;;;1.50;97.80;;;;;;4953966;29;20054;-77
2021/12/11 02:48:08;;;;;;;20.13;9.95;;;1.30;97.70;;;;;;4954095;29;20063;-77
2021/12/11 02:50:42;;;;;;;22.00;11.05;;;1.40;97.90;;;;;;4949600;29;20063;-77
2021/12/11 02:53:16;;;;;;;21.65;11.48;;;1.40;98.00;;;;;;4955813;28;20499;-77
2021/12/11 02:55:45;;;;;;;22.40;11.80;;;1.50;97.90;;;;;;4957606;29;20493;-77
2021/12/11 02:58:32;;;;;;;32.08;13.70;;;1.50;98.00;;;;;;4957901;29;20102;-77
2021/12/11 03:01:11;;;;;;;27.30;12.60;;;1.70;97.80;;;;;;4958742;28;20380;-77
2021/12/11 03:03:43;;;;;;;33.85;14.98;;;1.50;97.80;;;;;;4957466;29;20051;-77
2021/12/11 03:06:19;;;;;;;35.40;15.55;;;1.60;97.80;;;;;;4958234;29;20380;-77
2021/12/11 03:08:47;;;;;;;25.95;11.95;;;1.60;97.70;;;;;;4957208;29;20047;-77
2021/12/11 03:11:17;;;;;;;28.77;12.57;;;1.60;97.60;;;;;;4958468;28;20055;-77
2021/12/11 03:13:50;;;;;;;23.23;11.63;;;1.60;97.60;;;;;;4957258;29;20098;-77
2021/12/11 03:16:21;;;;;;;23.52;12.27;;;1.40;97.30;;;;;;4958112;29;20392;-77
2021/12/11 03:18:48;;;;;;;24.65;11.77;;;1.40;97.70;;;;;;4957666;29;20082;-77
2021/12/11 03:21:14;;;;;;;22.67;12.02;;;1.30;97.70;;;;;;4941398;29;20051;-77
2021/12/11 03:23:40;;;;;;;24.35;11.45;;;1.30;97.70;;;;;;4957222;29;20047;-77
2021/12/11 03:26:06;;;;;;;25.20;12.00;;;1.20;97.40;;;;;;4957494;29;20079;-77
2021/12/11 03:28:32;;;;;;;27.33;13.10;;;1.10;97.50;;;;;;4941020;29;20486;-77
2021/12/11 03:31:00;;;;;;;23.42;12.80;;;1.00;97.50;;;;;;4956949;29;20058;-77
2021/12/11 03:33:31;;;;;;;26.52;12.38;;;0.90;97.50;;;;;;4941142;29;20058;-77
2021/12/11 03:35:57;;;;;;;39.42;16.10;;;1.00;97.60;;;;;;4957251;29;20078;-77
2021/12/11 03:38:25;;;;;;;29.98;13.02;;;1.10;97.60;;;;;;4940719;29;20059;-77
2021/12/11 03:40:52;;;;;;;26.02;12.32;;;1.10;97.80;;;;;;4941199;29;20047;-77
2021/12/11 03:43:21;;;;;;;28.65;13.90;;;1.20;98.00;;;;;;4940433;29;20058;-77
2021/12/11 03:45:50;;;;;;;25.25;11.95;;;1.30;97.90;;;;;;4957046;29;20106;-77
2021/12/11 03:48:21;;;;;;;35.80;16.23;;;1.30;97.80;;;;;;4956731;29;20098;-77
2021/12/11 03:50:47;;;;;;;35.80;15.10;;;1.30;98.00;;;;;;4940873;29;20051;-77
2021/12/11 03:53:15;;;;;;;27.38;13.75;;;1.40;98.00;;;;;;4924917;29;20055;-78
2021/12/11 03:55:47;;;;;;;29.10;14.05;;;1.50;98.00;;;;;;4956381;29;20062;-77
2021/12/11 03:58:13;;;;;;;29.05;13.60;;;1.40;97.50;;;;;;4941484;29;20106;-77
2021/12/11 04:00:55;;;;;;;31.00;14.05;;;1.30;97.50;;;;;;4956535;29;20098;-77
2021/12/11 04:03:23;;;;;;;26.17;13.38;;;1.20;97.50;;;;;;4956549;28;20510;-77
2021/12/11 04:05:50;;;;;;;27.10;13.10;;;1.00;97.80;;;;;;4955499;29;20106;-77
2021/12/11 04:08:20;;;;;;;29.50;13.27;;;1.10;98.10;;;;;;4939748;29;20549;-78
2021/12/11 04:10:47;;;;;;;31.55;14.45;;;1.20;98.40;;;;;;4940581;29;20499;-77
2021/12/11 04:13:14;;;;;;;28.98;14.10;;;1.40;98.40;;;;;;4956407;29;20047;-77
2021/12/11 04:15:42;;;;;;;27.33;12.65;;;1.40;98.10;;;;;;4956586;29;20113;-77
2021/12/11 04:18:08;;;;;;;27.95;12.27;;;1.30;97.70;;;;;;4955950;29;20577;-77
2021/12/11 04:20:37;;;;;;;31.67;15.35;;;1.20;97.80;;;;;;4940188;29;20053;-77
2021/12/11 04:23:04;;;;;;;33.35;14.75;;;1.30;98.10;;;;;;4955945;29;20051;-77
2021/12/11 04:25:30;;;;;;;29.92;14.80;;;1.30;98.00;;;;;;4956196;29;20130;-77
2021/12/11 04:27:57;;;;;;;34.35;15.63;;;1.40;98.00;;;;;;4955814;29;20047;-77
2021/12/11 04:30:26;;;;;;;28.38;13.80;;;1.50;98.20;;;;;;4955882;29;20387;-77
2021/12/11 04:32:53;;;;;;;28.92;13.73;;;1.50;98.00;;;;;;4956068;29;20051;-77
2021/12/11 04:35:21;;;;;;;32.75;14.07;;;1.50;97.90;;;;;;4955721;29;20039;-77
2021/12/11 04:37:47;;;;;;;25.15;12.90;;;1.50;97.90;;;;;;4955746;29;20059;-77
2021/12/11 04:40:21;;;;;;;29.40;13.27;;;1.40;97.90;;;;;;4955514;29;20445;-77
2021/12/11 04:45:24;;;;;;;31.15;14.68;;;1.30;97.70;;;;;;4955748;29;20498;-77
2021/12/11 04:47:56;;;;;;;25.65;12.98;;;1.20;97.60;;;;;;4955605;29;20059;-77
2021/12/11 04:50:34;;;;;;;30.50;15.18;;;1.20;97.90;;;;;;4955860;29;20120;-77
2021/12/11 04:53:03;;;;;;;31.02;13.20;;;1.20;97.90;;;;;;4955353;29;20052;-77
2021/12/11 04:55:52;;;;;;;26.75;12.73;;;1.20;97.70;;;;;;4955489;29;20093;-77
2021/12/11 05:06:35;;;;;;;27.73;12.40;;;1.00;97.90;;;;;;4955528;29;20393;-77
2021/12/11 05:11:45;;;;;;;29.70;13.40;;;0.90;98.00;;;;;;4955345;29;20051;-77
2021/12/11 05:14:14;;;;;;;29.98;13.70;;;0.90;97.90;;;;;;4955521;29;20406;-77
2021/12/11 05:16:41;;;;;;;27.13;13.32;;;0.90;97.90;;;;;;4955126;28;20078;-77
2021/12/11 05:19:07;;;;;;;32.47;15.23;;;0.90;98.00;;;;;;4954952;29;20051;-77
2021/12/11 05:21:33;;;;;;;33.03;15.18;;;1.00;98.00;;;;;;4939383;29;20391;-77
2021/12/11 05:24:01;;;;;;;28.33;14.02;;;1.00;97.90;;;;;;4954887;29;20115;-77
2021/12/11 05:26:27;;;;;;;27.42;13.95;;;1.40;98.10;;;;;;4955228;29;20047;-77
2021/12/11 05:28:53;;;;;;;25.73;13.32;;;1.00;97.90;;;;;;4954890;29;20510;-77
2021/12/11 05:31:19;;;;;;;26.20;13.02;;;1.00;97.90;;;;;;4954824;29;20459;-77
2021/12/11 05:33:46;;;;;;;26.60;13.52;;;1.00;97.90;;;;;;4950410;29;20075;-77
2021/12/11 05:36:18;;;;;;;34.75;14.55;;;1.00;98.00;;;;;;4954055;29;20130;-77
2021/12/11 05:38:47;;;;;;;31.20;13.35;;;1.00;98.20;;;;;;4954647;29;20055;-77
2021/12/11 05:41:17;;;;;;;31.75;14.05;;;1.00;98.30;;;;;;4954756;29;20047;-77
2021/12/11 05:43:43;;;;;;;26.27;13.15;;;1.00;98.30;;;;;;4954662;29;20130;-77
2021/12/11 05:46:13;;;;;;;28.05;13.32;;;1.10;98.30;;;;;;4954467;29;20062;-77
2021/12/11 05:48:40;;;;;;;27.02;12.57;;;1.10;98.10;;;;;;4954820;29;20460;-77
2021/12/11 05:51:11;;;;;;;28.40;12.73;;;1.20;97.90;;;;;;4954562;29;20138;-77
2021/12/11 05:53:37;;;;;;;30.38;14.00;;;1.10;97.90;;;;;;4954887;29;20055;-77
2021/12/11 05:56:10;;;;;;;26.38;12.65;;;1.20;98.10;;;;;;4954668;29;20051;-77
2021/12/11 06:01:27;;;;;;;29.05;12.85;;;1.20;98.10;;;;;;4955230;29;20062;-77
2021/12/11 06:03:53;;;;;;;25.52;13.00;;;1.20;97.90;;;;;;4938369;29;20055;-77
2021/12/11 06:06:18;;;;;;;24.55;12.65;;;1.10;97.70;;;;;;4938851;29;20055;-77
2021/12/11 06:08:44;;;;;;;25.27;12.77;;;1.00;97.80;;;;;;4953933;29;20101;-77
2021/12/11 06:11:12;;;;;;;26.58;12.50;;;1.00;97.80;;;;;;4954082;29;20051;-77
2021/12/11 06:13:41;;;;;;;26.02;12.23;;;0.90;97.80;;;;;;4954500;29;20090;-77
2021/12/11 06:16:07;;;;;;;29.40;12.63;;;1.00;98.00;;;;;;4938310;29;20426;-77
2021/12/11 06:18:33;;;;;;;30.80;13.18;;;1.00;98.00;;;;;;4938357;29;20113;-77
2021/12/11 06:20:59;;;;;;;27.35;12.40;;;1.00;97.90;;;;;;4954264;29;20126;-77
2021/12/11 06:23:25;;;;;;;28.73;13.18;;;1.00;97.80;;;;;;4938244;29;20047;-77
2021/12/11 06:25:55;;;;;;;28.42;14.07;;;1.00;98.00;;;;;;4954059;29;20043;-77
2021/12/11 06:28:23;;;;;;;27.17;12.52;;;1.00;98.10;;;;;;4941048;29;20047;-77
2021/12/11 06:30:49;;;;;;;29.05;13.27;;;1.10;98.00;;;;;;4942483;29;20062;-77
2021/12/11 06:33:15;;;;;;;27.23;12.48;;;1.10;98.10;;;;;;4958101;29;20051;-77
2021/12/11 06:35:58;;;;;;;29.08;13.40;;;1.10;98.20;;;;;;4958141;28;20403;-77
2021/12/11 06:38:27;;;;;;;27.27;13.18;;;1.20;98.20;;;;;;4957680;29;20070;-78
2021/12/11 06:40:54;;;;;;;30.10;12.82;;;1.20;98.10;;;;;;4958070;29;20054;-78
2021/12/11 06:43:21;;;;;;;30.80;14.23;;;1.20;97.90;;;;;;4957881;29;20083;-77
2021/12/11 06:45:47;;;;;;;27.10;13.23;;;1.10;98.00;;;;;;4957836;29;20046;-77
2021/12/11 06:48:15;;;;;;;28.67;13.32;;;1.20;98.00;;;;;;4942249;29;20047;-77
2021/12/11 06:50:42;;;;;;;34.92;14.10;;;1.10;98.10;;;;;;4942081;29;20534;-77
2021/12/11 06:53:13;;;;;;;29.27;13.52;;;1.10;98.00;;;;;;4957897;29;20069;-77
2021/12/11 06:55:39;;;;;;;28.75;12.55;;;1.00;98.10;;;;;;4941923;29;20051;-77
2021/12/11 06:58:05;;;;;;;26.27;13.57;;;1.10;98.10;;;;;;4957804;29;20051;-77
2021/12/11 07:00:31;;;;;;;29.42;13.10;;;1.20;97.90;;;;;;4941736;29;20132;-77
2021/12/11 07:02:56;;;;;;;32.95;14.68;;;1.20;98.00;;;;;;4957519;29;20047;-77
2021/12/11 07:05:22;;;;;;;31.52;14.30;;;1.30;98.10;;;;;;4941486;29;20043;-77
2021/12/11 07:07:48;;;;;;;35.20;14.45;;;1.30;98.20;;;;;;4957685;29;20109;-77
2021/12/11 07:10:16;;;;;;;33.97;15.30;;;1.40;98.20;;;;;;4957159;29;20043;-77
2021/12/11 07:12:44;;;;;;;27.17;13.60;;;1.40;98.10;;;;;;4957483;29;20051;-77
2021/12/11 07:15:11;;;;;;;30.23;14.57;;;1.30;97.70;;;;;;4957607;29;20070;-77
2021/12/11 07:17:38;;;;;;;33.47;15.35;;;1.40;97.90;;;;;;4957188;29;20055;-77
2021/12/11 07:20:06;;;;;;;32.22;14.82;;;1.40;98.00;;;;;;4941295;29;20055;-77
2021/12/11 07:22:31;;;;;;;37.83;16.02;;;1.40;98.00;;;;;;4957154;29;20047;-77
2021/12/11 07:25:05;;;;;;;30.00;14.68;;;1.40;98.00;;;;;;4957640;29;20058;-77
2021/12/11 07:27:31;;;;;;;31.05;15.30;;;1.40;98.10;;;;;;4957215;29;20055;-77
2021/12/11 07:29:57;;;;;;;32.55;14.45;;;1.50;97.90;;;;;;4957261;29;20097;-77
2021/12/11 07:32:23;;;;;;;31.60;15.30;;;1.40;97.90;;;;;;4957174;29;20082;-77
2021/12/11 07:34:49;;;;;;;30.52;14.60;;;1.40;98.10;;;;;;4956900;29;20145;-77
2021/12/11 07:37:16;;;;;;;33.28;14.90;;;1.50;98.00;;;;;;4956844;29;20484;-77
2021/12/11 07:39:42;;;;;;;37.38;16.58;;;1.50;97.80;;;;;;4956329;28;20097;-77
2021/12/11 07:42:07;;;;;;;32.33;15.60;;;1.50;97.90;;;;;;4957136;29;20447;-77
2021/12/11 07:44:34;;;;;;;34.97;15.48;;;1.40;97.90;;;;;;4956566;29;20061;-77
2021/12/11 07:47:00;;;;;;;36.28;16.20;;;1.40;97.90;;;;;;4956601;29;20043;-78
2021/12/11 07:49:27;;;;;;;36.42;16.50;;;1.40;98.00;;;;;;4956959;29;20138;-77
2021/12/11 07:51:53;;;;;;;34.50;15.80;;;1.50;98.00;;;;;;4941057;29;20486;-77
2021/12/11 07:54:19;;;;;;;39.08;17.30;;;1.50;98.00;;;;;;4941388;29;20062;-77
2021/12/11 07:56:45;;;;;;;41.28;17.77;;;1.50;97.90;;;;;;4940672;29;20091;-77
2021/12/11 07:59:12;;;;;;;46.53;18.38;;;1.60;97.90;;;;;;4940524;29;20055;-77
2021/12/11 08:01:42;;;;;;;35.72;16.02;;;1.50;97.90;;;;;;4956422;29;20087;-77
2021/12/11 08:04:10;;;;;;;47.55;18.77;;;1.60;98.00;;;;;;4956569;29;20522;-77
2021/12/11 08:06:37;;;;;;;41.05;17.23;;;1.70;98.00;;;;;;4956493;29;20093;-77
2021/12/11 08:09:08;;;;;;;34.72;15.60;;;1.60;97.90;;;;;;4956174;29;20070;-78
2021/12/11 08:11:34;;;;;;;49.80;19.40;;;1.50;97.90;;;;;;4956602;29;20443;-78
2021/12/11 08:14:01;;;;;;;34.42;16.60;;;1.60;97.90;;;;;;4940397;29;20106;-78
2021/12/11 08:16:33;;;;;;;37.60;16.23;;;1.60;97.90;;;;;;4951719;29;20399;-78
2021/12/11 08:19:04;;;;;;;33.83;16.05;;;1.60;98.00;;;;;;4941278;28;20052;-78
2021/12/11 08:21:31;;;;;;;41.95;19.30;;;1.60;98.00;;;;;;4926427;29;20063;-78
2021/12/11 08:24:03;;;;;;;52.75;22.05;;;1.70;98.10;;;;;;4954426;29;20043;-78
2021/12/11 08:26:30;;;;;;;47.53;20.30;;;1.60;98.10;;;;;;4955068;29;20048;-78
2021/12/11 08:28:55;;;;;;;56.47;22.02;;;1.70;98.30;;;;;;4955880;29;20054;-77
2021/12/11 08:31:22;;;;;;;65.43;24.92;;;1.70;98.00;;;;;;4924212;29;20139;-77
2021/12/11 08:33:49;;;;;;;64.40;25.70;;;1.70;98.00;;;;;;4955821;29;20059;-78
2021/12/11 08:36:16;;;;;;;68.15;25.98;;;1.70;98.10;;;;;;4938426;29;20131;-78
2021/12/11 08:38:42;;;;;;;51.20;21.77;;;1.70;98.20;;;;;;4954601;29;20059;-78
2021/12/11 08:41:12;;;;;;;40.97;19.52;;;1.70;98.40;;;;;;4938376;29;20553;-77
2021/12/11 08:43:38;;;;;;;38.97;19.02;;;1.80;98.30;;;;;;4939583;29;20130;-78
2021/12/11 08:46:12;;;;;;;58.20;23.92;;;1.90;98.20;;;;;;4955668;29;20135;-77
2021/12/11 08:48:41;;;;;;;49.72;22.75;;;1.90;98.30;;;;;;4939644;29;20483;-77
2021/12/11 08:51:25;;;;;;;41.92;20.10;;;1.90;98.40;;;;;;4955234;28;20394;-77
2021/12/11 08:53:51;;;;;;;40.75;20.48;;;2.00;98.40;;;;;;4955712;29;20070;-77
2021/12/11 08:56:18;;;;;;;42.28;18.98;;;2.00;98.40;;;;;;4924026;29;20396;-78
2021/12/11 08:58:45;;;;;;;40.78;18.00;;;2.10;98.40;;;;;;4939698;29;20470;-78
2021/12/11 09:01:14;;;;;;;38.00;18.92;;;2.10;98.50;;;;;;4955501;29;20066;-78
2021/12/11 09:03:47;;;;;;;43.10;18.05;;;2.20;98.50;;;;;;4955397;29;20047;-79
2021/12/11 09:06:22;;;;;;;51.95;21.63;;;2.20;98.60;;;;;;4955449;29;20043;-76
2021/12/11 09:09:16;;;;;;;49.83;21.55;;;2.40;98.70;;;;;;4939879;29;20305;-75
2021/12/11 09:11:47;;;;;;;42.55;19.58;;;2.50;98.50;;;;;;4955616;29;20069;-82
2021/12/11 09:14:19;;;;;;;55.40;23.08;;;2.50;98.60;;;;;;4955162;29;20143;-74
2021/12/11 09:17:01;;;;;;;51.15;23.27;;;2.50;98.50;;;;;;4955086;29;20398;-76
2021/12/11 09:19:41;;;;;;;81.25;29.13;;;2.50;98.60;;;;;;4955402;29;20051;-76
2021/12/11 09:22:12;;;;;;;51.80;23.38;;;2.50;98.80;;;;;;4955261;29;20126;-75
2021/12/11 09:24:46;;;;;;;51.85;23.35;;;2.50;98.80;;;;;;4956171;28;20414;-74
2021/12/11 09:27:21;;;;;;;64.63;27.77;;;2.50;98.70;;;;;;4959494;29;20047;-75
2021/12/11 09:29:50;;;;;;;43.13;20.58;;;2.60;98.60;;;;;;4957317;29;20118;-75
2021/12/11 09:32:24;;;;;;;46.63;21.80;;;2.70;98.60;;;;;;4955111;29;20118;-77
2021/12/11 09:35:00;;;;;;;42.72;19.63;;;2.70;98.60;;;;;;4955053;29;20112;-77
2021/12/11 09:37:26;;;;;;;42.35;19.92;;;2.80;98.60;;;;;;4954621;29;20051;-77
2021/12/11 09:40:00;;;;;;;43.92;21.35;;;2.90;98.70;;;;;;4954469;29;20050;-77
2021/12/11 09:42:25;;;;;;;43.85;20.95;;;2.90;98.60;;;;;;4954647;29;20066;-77
2021/12/11 09:44:59;;;;;;;69.55;27.40;;;3.00;98.90;;;;;;4954532;29;20039;-77
2021/12/11 09:47:30;;;;;;;49.08;23.48;;;3.00;99.00;;;;;;4954664;29;20055;-77
2021/12/11 09:50:03;;;;;;;76.65;28.63;;;3.00;99.20;;;;;;4954884;29;20055;-77
2021/12/11 09:52:32;;;;;;;68.05;26.85;;;3.00;99.10;;;;;;4938921;29;20051;-78
2021/12/11 09:55:06;;;;;;;50.17;22.17;;;3.10;99.20;;;;;;4938804;29;20070;-76
2021/12/11 09:57:37;;;;;;;65.93;26.17;;;3.20;99.10;;;;;;4955049;29;20062;-77
2021/12/11 10:00:19;;;;;;;52.85;23.25;;;3.30;99.10;;;;;;4939927;29;20051;-76
2021/12/11 10:02:45;;;;;;;88.35;30.52;;;3.30;99.10;;;;;;4953292;28;20082;-75
2021/12/11 10:05:32;;;;;;;86.75;32.42;;;3.40;99.20;;;;;;4954770;29;20055;-74
2021/12/11 10:08:32;;;;;;;54.70;25.27;;;3.30;99.50;;;;;;4954703;29;20126;-75
2021/12/11 10:11:30;;;;;;;58.92;26.70;;;3.30;99.70;;;;;;4954386;29;20058;-74
2021/12/11 10:14:07;;;;;;;72.97;28.23;;;3.50;99.70;;;;;;4933245;29;20059;-74
2021/12/11 10:16:39;;;;;;;86.00;31.45;;;3.70;99.60;;;;;;4954801;29;20499;-76
2021/12/11 10:19:08;;;;;;;52.40;24.80;;;3.80;99.60;;;;;;4954374;29;20090;-76
2021/12/11 10:21:43;;;;;;;79.75;30.17;;;4.00;99.50;;;;;;4954030;29;20043;-76
2021/12/11 10:24:21;;;;;;;64.65;30.23;;;4.00;99.50;;;;;;4954329;29;20483;-70
2021/12/11 10:26:49;;;;;;;58.10;25.83;;;4.10;99.50;;;;;;4954164;29;20086;-70
2021/12/11 10:29:15;;;;;;;67.82;26.95;;;4.30;99.40;;;;;;4954208;29;20130;-73
2021/12/11 10:32:05;;;;;;;69.07;28.70;;;4.60;99.10;;;;;;4938461;29;20138;-73
2021/12/11 10:34:33;;;;;;;50.92;24.30;;;4.80;99.00;;;;;;4955498;28;20047;-73
2021/12/11 10:37:12;;;;;;;44.75;22.42;;;5.00;98.50;;;;;;4953907;29;20055;-73
2021/12/11 10:39:43;;;;;;;48.40;23.38;;;5.00;98.10;;;;;;4953722;29;20090;-73
2021/12/11 10:42:09;;;;;;;38.97;19.85;;;5.00;98.20;;;;;;4954012;29;20050;-74
2021/12/11 10:44:39;;;;;;;42.33;21.70;;;5.00;98.30;;;;;;4953998;29;20047;-73
2021/12/11 10:47:09;;;;;;;43.33;20.10;;;4.80;98.70;;;;;;4954396;29;20130;-72
2021/12/11 10:49:36;;;;;;;48.60;22.60;;;4.80;98.90;;;;;;4954240;29;20065;-73
2021/12/11 10:52:27;;;;;;;43.90;21.05;;;4.80;98.90;;;;;;4937914;29;20059;-73
2021/12/11 10:54:54;;;;;;;49.40;22.63;;;4.80;98.80;;;;;;4954034;29;20051;-74
2021/12/11 10:57:23;;;;;;;47.90;21.83;;;4.80;99.00;;;;;;4953959;29;20047;-72
2021/12/11 10:59:52;;;;;;;46.97;21.77;;;4.90;99.00;;;;;;4938014;29;20092;-73
2021/12/11 11:02:26;;;;;;;56.58;24.00;;;4.90;98.90;;;;;;4954159;29;20062;-73
2021/12/11 11:05:04;;;;;;;45.42;22.50;;;5.00;99.00;;;;;;4953631;29;20055;-72
2021/12/11 11:07:30;;;;;;;48.30;23.33;;;5.00;99.00;;;;;;4953861;29;20110;-73
2021/12/11 11:10:02;;;;;;;61.83;26.73;;;5.00;99.00;;;;;;4953315;29;20526;-73
2021/12/11 11:12:31;;;;;;;49.63;23.23;;;4.90;99.30;;;;;;4953973;29;20051;-75
2021/12/11 11:14:57;;;;;;;50.50;23.38;;;4.80;99.30;;;;;;4956831;28;20086;-72
2021/12/11 11:17:28;;;;;;;52.90;24.23;;;4.80;99.50;;;;;;4957524;29;20134;-76
2021/12/11 11:19:54;;;;;;;50.40;22.38;;;5.00;99.50;;;;;;4943204;29;20055;-87
2021/12/11 11:22:25;;;;;;;45.08;21.88;;;5.10;99.60;;;;;;4958165;28;20421;-72
2021/12/11 11:24:56;;;;;;;47.58;21.17;;;5.20;99.40;;;;;;4957245;29;20125;-71
2021/12/11 11:27:22;;;;;;;47.97;22.55;;;5.20;99.20;;;;;;4958141;28;20059;-72
2021/12/11 11:29:48;;;;;;;45.58;20.95;;;5.40;99.40;;;;;;4958386;28;20055;-72
2021/12/11 11:32:32;;;;;;;50.38;25.45;;;5.50;99.30;;;;;;4958177;28;20471;-70
2021/12/11 11:35:10;;;;;;;51.88;26.48;;;5.80;99.30;;;;;;4957144;29;20098;-72
2021/12/11 11:37:37;;;;;;;49.17;23.30;;;5.90;98.90;;;;;;4957019;29;20118;-72
2021/12/11 11:40:17;;;;;;;51.78;25.55;;;5.90;99.00;;;;;;4956421;29;20063;-72
2021/12/11 11:42:43;;;;;;;51.22;24.67;;;6.00;98.80;;;;;;4956947;29;20048;-72
2021/12/11 11:45:12;;;;;;;43.33;23.13;;;6.10;98.90;;;;;;4957584;28;20059;-76
2021/12/11 11:47:39;;;;;;;55.90;25.02;;;6.20;98.80;;;;;;4956928;29;20051;-76
2021/12/11 11:50:07;;;;;;;51.30;24.38;;;6.30;98.70;;;;;;4940884;29;20051;-76
2021/12/11 11:52:33;;;;;;;47.28;21.73;;;6.30;98.70;;;;;;4956859;29;20059;-75
2021/12/11 11:55:04;;;;;;;57.85;26.13;;;6.20;98.70;;;;;;4957098;29;20047;-76
2021/12/11 11:57:36;;;;;;;41.35;21.38;;;6.20;98.70;;;;;;4956613;29;20061;-76
2021/12/11 12:00:13;;;;;;;48.22;23.00;;;6.10;98.80;;;;;;4958575;29;20445;-73
2021/12/11 12:02:39;;;;;;;45.72;21.40;;;6.10;98.90;;;;;;4958536;29;20055;-75
2021/12/11 12:05:05;;;;;;;45.92;20.90;;;6.20;98.80;;;;;;4940713;29;20058;-71
2021/12/11 12:07:32;;;;;;;38.75;20.58;;;6.20;98.90;;;;;;4956424;29;20047;-87
2021/12/11 12:10:05;;;;;;;43.30;22.20;;;6.20;98.80;;;;;;4955943;29;20065;-80
2021/12/11 12:12:30;;;;;;;41.63;20.48;;;6.20;98.90;;;;;;4956860;29;20079;-78
2021/12/11 12:14:57;;;;;;;47.00;22.90;;;6.20;99.00;;;;;;4956226;29;20153;-76
2021/12/11 12:17:27;;;;;;;41.15;20.85;;;6.30;99.00;;;;;;4956653;29;20058;-77
2021/12/11 12:19:54;;;;;;;41.25;20.20;;;6.30;98.90;;;;;;4956233;29;20047;-76
2021/12/11 12:22:22;;;;;;;53.60;25.33;;;6.30;99.00;;;;;;4956142;29;20051;-72
2021/12/11 12:24:51;;;;;;;56.38;24.73;;;6.40;98.90;;;;;;4955075;28;20094;-77
2021/12/11 12:27:20;;;;;;;52.60;24.55;;;6.20;99.10;;;;;;4958612;29;20086;-78
2021/12/11 12:29:47;;;;;;;55.50;25.98;;;6.10;99.20;;;;;;4959811;28;20082;-78
2021/12/11 12:32:18;;;;;;;50.15;24.95;;;6.10;99.20;;;;;;4956168;29;20055;-77
2021/12/11 12:34:46;;;;;;;57.80;27.08;;;6.10;99.10;;;;;;4940221;29;20047;-77
2021/12/11 12:37:12;;;;;;;65.40;26.48;;;5.90;99.10;;;;;;4958573;29;20445;-72
2021/12/11 12:39:43;;;;;;;62.55;25.85;;;5.80;99.30;;;;;;4957637;28;20062;-70
2021/12/11 12:42:29;;;;;;;60.35;25.35;;;5.80;99.50;;;;;;4957627;29;20400;-73
2021/12/11 12:45:07;;;;;;;52.00;23.90;;;6.10;99.50;;;;;;4958996;28;20047;-69
2021/12/11 12:47:37;;;;;;;48.65;21.27;;;6.50;99.10;;;;;;4956961;28;20051;-70
2021/12/11 12:50:11;;;;;;;50.95;22.42;;;6.90;98.90;;;;;;4956745;28;20086;-70
2021/12/11 12:52:42;;;;;;;37.08;18.85;;;7.20;98.60;;;;;;4955856;29;20475;-70
2021/12/11 12:55:14;;;;;;;34.47;19.23;;;7.50;98.20;;;;;;4956575;28;20485;-70
2021/12/11 12:57:43;;;;;;;39.03;20.15;;;7.60;97.90;;;;;;4955556;29;20086;-70
2021/12/11 13:00:25;;;;;;;35.50;18.00;;;7.40;97.60;;;;;;4956346;28;20384;-70
2021/12/11 13:02:54;;;;;;;30.05;16.42;;;7.50;98.20;;;;;;4955215;29;20558;-69
2021/12/11 13:05:30;;;;;;;29.20;16.40;;;8.00;97.90;;;;;;4955457;29;20376;-69
2021/12/11 13:08:03;;;;;;;38.08;18.98;;;8.40;97.00;;;;;;4955676;29;20069;-69
2021/12/11 13:10:39;;;;;;;38.47;20.42;;;8.40;97.20;;;;;;4954643;29;20106;-70